Terminal Aerodrome Forecast
Issued by NWS

Home | Current Version | Previous Version | Text Only | Print | Product List | Glossary On
Versions: 1 2 3 4 5 6 7 8 9 10 11 12 13 14 15 16 17 18 19 20 21 22 23
000
FTUS46 KEKA 231736
TAFCEC
TAF
KCEC 231736Z 2318/2418 12005KT P6SM VCSH FEW008 BKN028 OVC035
     FM232200 17006KT 5SM -SHRA OVC015
     FM240600 15005KT 6SM BR SCT015 BKN025
     FM241600 12009KT 6SM -RA OVC015=

USA.gov is the U.S. government's official web portal to all federal, state and local government web resources and services.